TimeEDT,TemperatureF,Dew PointF,Humidity,Sea Level PressureIn,VisibilityMPH,Wind Direction,Wind SpeedMPH,Gust SpeedMPH,PrecipitationIn,Events,Conditions,WindDirDegrees,DateUTC
12:53 AM,62.1,61.0,96,30.17,10.0,East,5.8,-,N/A,,Clear,100,2012-09-04 04:53:00
1:53 AM,64.0,63.0,96,30.16,10.0,ESE,6.9,-,N/A,,Overcast,110,2012-09-04 05:53:00
2:53 AM,64.9,64.0,97,30.14,10.0,ESE,8.1,-,N/A,,Overcast,110,2012-09-04 06:53:00
3:53 AM,64.9,64.0,97,30.12,10.0,ESE,6.9,-,N/A,,Overcast,120,2012-09-04 07:53:00
4:53 AM,66.0,64.0,93,30.13,10.0,ESE,8.1,-,N/A,,Overcast,110,2012-09-04 08:53:00
5:53 AM,66.0,64.9,96,30.13,10.0,ESE,6.9,-,N/A,,Overcast,110,2012-09-04 09:53:00
6:53 AM,66.0,64.0,93,30.14,10.0,East,9.2,-,N/A,,Overcast,100,2012-09-04 10:53:00
7:53 AM,66.9,64.9,93,30.14,10.0,ESE,10.4,-,N/A,,Overcast,110,2012-09-04 11:53:00
8:36 AM,68.0,64.4,88,30.12,10.0,ESE,11.5,-,0.00,,Overcast,120,2012-09-04 12:36:00
8:53 AM,68.0,64.9,90,30.12,10.0,ESE,12.7,-,0.00,,Overcast,120,2012-09-04 12:53:00
9:07 AM,69.8,64.4,83,30.12,10.0,ESE,12.7,-,N/A,,Overcast,120,2012-09-04 13:07:00
9:53 AM,69.1,64.9,87,30.12,10.0,ESE,10.4,-,N/A,,Overcast,120,2012-09-04 13:53:00
10:53 AM,73.0,66.0,79,30.10,10.0,SE,13.8,-,N/A,,Overcast,130,2012-09-04 14:53:00
11:53 AM,73.9,66.0,76,30.09,10.0,SE,16.1,-,N/A,,Overcast,130,2012-09-04 15:53:00
12:53 PM,72.0,66.0,81,30.08,10.0,SE,16.1,-,N/A,,Mostly Cloudy,130,2012-09-04 16:53:00
1:53 PM,73.9,66.9,79,30.05,10.0,SE,18.4,-,N/A,,Mostly Cloudy,130,2012-09-04 17:53:00
2:53 PM,73.0,66.9,81,30.03,10.0,SE,16.1,-,N/A,,Overcast,130,2012-09-04 18:53:00
3:53 PM,73.0,68.0,84,30.02,10.0,SE,12.7,-,N/A,,Overcast,140,2012-09-04 19:53:00
4:53 PM,72.0,69.1,91,30.00,10.0,SSE,13.8,-,N/A,,Overcast,150,2012-09-04 20:53:00
5:53 PM,71.6,68.0,88,30.00,10.0,SSE,11.5,-,N/A,,Overcast,150,2012-09-04 21:53:00
6:53 PM,71.1,68.0,90,29.99,10.0,SSE,11.5,-,N/A,,Clear,160,2012-09-04 22:53:00
7:53 PM,71.1,69.1,93,29.99,9.0,SSE,11.5,-,N/A,,Scattered Clouds,160,2012-09-04 23:53:00
8:53 PM,71.1,70.0,96,29.98,8.0,SSE,9.2,-,N/A,,Overcast,160,2012-09-05 00:53:00
9:53 PM,71.1,70.0,96,29.97,6.0,South,10.4,-,N/A,,Clear,170,2012-09-05 01:53:00
10:53 PM,71.1,71.1,100,29.96,6.0,South,10.4,-,N/A,,Partly Cloudy,170,2012-09-05 02:53:00
11:53 PM,72.0,71.1,97,29.94,7.0,South,11.5,-,N/A,,Clear,180,2012-09-05 03:53:00